LNOSC SVBC-SVCU
Flight info
| Callsign | LNOSC |
|---|---|
| Flight time | 0h -24m |
| Altitude | 4000 |
| Route | ESGIR1 PORGA |
| Aircraft | EC35/L-SDFGRY/C |
Departure
| Time | 2026-04-11 18:13 |
|---|---|
| Airport | General José Antonio Anzoategui International Airport (SVBC) |
Arrival
| Time | 2026-04-11 17:49 |
|---|---|
| Airport | Antonio José de Sucre Airport (SVCU) |
| Time | Latitude | Longitude | Altitude | Speed | Heading |
|---|---|---|---|---|---|
| 2026-04-11 17:48 | 10.44953 | -64.13653 | -5 ft | 0 kts | 322° |
| 2026-04-11 18:01 | 10.44954 | -64.13652 | -4 ft | 0 kts | 15° |
| 2026-04-11 18:01 | 10.44949 | -64.13646 | 9 ft | 2 kts | 31° |
| 2026-04-11 18:02 | 10.44910 | -64.13700 | 66 ft | 32 kts | 243° |
| 2026-04-11 18:02 | 10.44741 | -64.14052 | 92 ft | 75 kts | 245° |
| 2026-04-11 18:02 | 10.44523 | -64.14610 | 150 ft | 91 kts | 251° |
| 2026-04-11 18:02 | 10.44325 | -64.15302 | 417 ft | 115 kts | 257° |
| 2026-04-11 18:03 | 10.44155 | -64.16189 | 510 ft | 135 kts | 258° |
| 2026-04-11 18:03 | 10.44036 | -64.17149 | 739 ft | 134 kts | 265° |
| 2026-04-11 18:03 | 10.43940 | -64.18113 | 788 ft | 143 kts | 258° |
| 2026-04-11 18:03 | 10.43764 | -64.19131 | 724 ft | 151 kts | 257° |
| 2026-04-11 18:04 | 10.43558 | -64.20148 | 1010 ft | 144 kts | 257° |
| 2026-04-11 18:04 | 10.43400 | -64.21189 | 1083 ft | 152 kts | 261° |
| 2026-04-11 18:04 | 10.43267 | -64.22295 | 919 ft | 165 kts | 262° |
| 2026-04-11 18:04 | 10.43141 | -64.23438 | 954 ft | 161 kts | 260° |
| 2026-04-11 18:05 | 10.42980 | -64.24556 | 963 ft | 160 kts | 261° |
| 2026-04-11 18:05 | 10.42863 | -64.25668 | 935 ft | 163 kts | 263° |
| 2026-04-11 18:05 | 10.42772 | -64.26799 | 975 ft | 162 kts | 262° |
| 2026-04-11 18:05 | 10.42592 | -64.27920 | 1035 ft | 161 kts | 256° |
| 2026-04-11 18:06 | 10.42266 | -64.29018 | 1052 ft | 162 kts | 249° |
| 2026-04-11 18:06 | 10.41935 | -64.30107 | 1100 ft | 161 kts | 254° |
| 2026-04-11 18:06 | 10.41755 | -64.31229 | 1118 ft | 160 kts | 265° |
| 2026-04-11 18:06 | 10.41732 | -64.32373 | 1080 ft | 160 kts | 270° |
| 2026-04-11 18:07 | 10.41791 | -64.33506 | 1048 ft | 163 kts | 270° |
| 2026-04-11 18:07 | 10.41716 | -64.34635 | 1068 ft | 162 kts | 257° |
| 2026-04-11 18:07 | 10.41268 | -64.35680 | 1036 ft | 165 kts | 231° |
| 2026-04-11 18:07 | 10.40310 | -64.36317 | 1059 ft | 167 kts | 196° |
| 2026-04-11 18:08 | 10.39145 | -64.36308 | 1077 ft | 171 kts | 155° |
| 2026-04-11 18:08 | 10.38301 | -64.35484 | 1204 ft | 170 kts | 119° |
| 2026-04-11 18:08 | 10.37716 | -64.34431 | 1074 ft | 177 kts | 110° |
| 2026-04-11 18:08 | 10.37639 | -64.33487 | 933 ft | 125 kts | 51° |
| 2026-04-11 18:09 | 10.38488 | -64.33431 | 576 ft | 148 kts | 315° |
| 2026-04-11 18:09 | 10.38756 | -64.34402 | 320 ft | 140 kts | 270° |
| 2026-04-11 18:09 | 10.38713 | -64.35270 | 329 ft | 102 kts | 242° |
| 2026-04-11 18:09 | 10.38224 | -64.35558 | 492 ft | 97 kts | 163° |
| 2026-04-11 18:10 | 10.37505 | -64.35728 | 495 ft | 126 kts | 223° |
| 2026-04-11 18:10 | 10.37113 | -64.36521 | 905 ft | 135 kts | 251° |
| 2026-04-11 18:10 | 10.36602 | -64.37482 | 215 ft | 162 kts | 244° |
| 2026-04-11 18:10 | 10.36771 | -64.38350 | 197 ft | 120 kts | 327° |
| 2026-04-11 18:11 | 10.37319 | -64.38826 | 95 ft | 89 kts | 292° |
| 2026-04-11 18:11 | 10.37563 | -64.39350 | 48 ft | 83 kts | 302° |
| 2026-04-11 18:11 | 10.37767 | -64.40007 | 163 ft | 109 kts | 274° |
| 2026-04-11 18:11 | 10.37540 | -64.40789 | 395 ft | 125 kts | 236° |
| 2026-04-11 18:12 | 10.37123 | -64.41631 | 452 ft | 137 kts | 260° |
| 2026-04-11 18:12 | 10.37216 | -64.42550 | 700 ft | 138 kts | 271° |
| 2026-04-11 18:12 | 10.36935 | -64.43503 | 809 ft | 152 kts | 234° |
| 2026-04-11 18:12 | 10.36163 | -64.44333 | 431 ft | 167 kts | 229° |
| 2026-04-11 18:13 | 10.35340 | -64.45121 | 432 ft | 160 kts | 217° |
| 2026-04-11 18:13 | 10.34452 | -64.45865 | 360 ft | 168 kts | 218° |
| 2026-04-11 18:13 | 10.33565 | -64.46618 | 458 ft | 165 kts | 221° |
| 2026-04-11 18:13 | 10.32785 | -64.47424 | 648 ft | 159 kts | 231° |
| 2026-04-11 18:14 | 10.32072 | -64.48293 | 809 ft | 158 kts | 235° |
| 2026-04-11 18:14 | 10.31483 | -64.49281 | 874 ft | 162 kts | 240° |
| 2026-04-11 18:14 | 10.30990 | -64.50321 | 1109 ft | 161 kts | 245° |
| 2026-04-11 18:14 | 10.30559 | -64.51362 | 1208 ft | 163 kts | 248° |
| 2026-04-11 18:15 | 10.30213 | -64.52413 | 1422 ft | 157 kts | 255° |
| 2026-04-11 18:15 | 10.29967 | -64.53514 | 1556 ft | 158 kts | 257° |
| 2026-04-11 18:15 | 10.29800 | -64.54619 | 1725 ft | 158 kts | 261° |
| 2026-04-11 18:15 | 10.29706 | -64.55737 | 1860 ft | 159 kts | 265° |
| 2026-04-11 18:16 | 10.29698 | -64.56851 | 2009 ft | 160 kts | 270° |
| 2026-04-11 18:16 | 10.29818 | -64.57953 | 2159 ft | 159 kts | 277° |
| 2026-04-11 18:16 | 10.30045 | -64.59048 | 2316 ft | 158 kts | 282° |
| 2026-04-11 18:16 | 10.30349 | -64.60125 | 2431 ft | 159 kts | 285° |
| 2026-04-11 18:17 | 10.30706 | -64.61191 | 2554 ft | 159 kts | 287° |
| 2026-04-11 18:17 | 10.31070 | -64.62249 | 2688 ft | 159 kts | 285° |
| 2026-04-11 18:17 | 10.31017 | -64.63342 | 2695 ft | 166 kts | 243° |
| 2026-04-11 18:17 | 10.30406 | -64.64364 | 2481 ft | 178 kts | 226° |
| 2026-04-11 18:18 | 10.29734 | -64.65145 | 2033 ft | 167 kts | 223° |
| 2026-04-11 18:18 | 10.28808 | -64.65891 | 1252 ft | 136 kts | 210° |